createdAt,value
2019-04-26T00:01:53.840Z,68.57
2019-04-26T00:05:00.100Z,69.31
2019-04-26T00:08:05.315Z,69.05
2019-04-26T00:11:25.835Z,68.47
2019-04-26T00:15:02.039Z,68.63
2019-04-26T00:18:08.724Z,68.83
2019-04-26T00:21:14.065Z,69.09
2019-04-26T00:24:19.638Z,69.09
2019-04-26T00:27:24.809Z,70.86
2019-04-26T00:30:29.948Z,71.65
2019-04-26T00:33:35.152Z,72.29
2019-04-26T00:36:40.608Z,71.53
2019-04-26T00:39:45.737Z,72.16
2019-04-26T00:42:52.079Z,73.25
2019-04-26T00:45:58.885Z,73.96
2019-04-26T00:49:06.079Z,73.50
2019-04-26T00:52:13.002Z,72.49
2019-04-26T00:55:19.848Z,73.60
2019-04-26T00:58:26.577Z,73.52
2019-04-26T01:01:35.180Z,74.39
2019-04-26T01:04:40.363Z,74.71
2019-04-26T01:07:47.166Z,74.83
2019-04-26T01:10:52.247Z,75.24
2019-04-26T01:13:57.415Z,75.59
2019-04-26T01:17:02.538Z,76.21
2019-04-26T01:20:08.373Z,76.35
2019-04-26T01:23:17.423Z,75.88
2019-04-26T01:26:30.699Z,75.75
2019-04-26T01:29:37.518Z,74.99
2019-04-26T01:32:44.537Z,75.09
2019-04-26T01:35:50.595Z,76.03
2019-04-26T01:38:58.877Z,77.05
2019-04-26T01:42:11.652Z,77.52
2019-04-26T01:45:45.542Z,78.29
2019-04-26T01:48:57.070Z,77.66
2019-04-26T01:52:09.174Z,77.58
2019-04-26T01:55:14.465Z,76.68
2019-04-26T01:58:21.921Z,77.85
2019-04-26T02:01:49.709Z,79.03
2019-04-26T02:04:57.517Z,79.35
2019-04-26T02:08:02.694Z,79.93
2019-04-26T02:11:07.833Z,80.10
2019-04-26T02:14:13.561Z,79.97
2019-04-26T02:17:18.666Z,79.50
2019-04-26T02:21:13.737Z,80.66
2019-04-26T02:24:50.345Z,80.22
2019-04-26T02:27:55.470Z,79.05
2019-04-26T02:31:00.778Z,78.16
2019-04-26T02:34:07.911Z,77.12
2019-04-26T02:37:15.111Z,76.38
2019-04-26T02:40:20.398Z,76.95
2019-04-26T02:43:29.636Z,77.31
2019-04-26T02:46:50.100Z,77.16
2019-04-26T02:49:59.374Z,76.98
2019-04-26T02:53:35.351Z,77.22
2019-04-26T02:56:42.963Z,76.65
2019-04-26T02:59:51.074Z,76.92
2019-04-26T03:03:02.243Z,77.51
2019-04-26T03:06:07.610Z,78.47
2019-04-26T03:09:15.142Z,78.48
2019-04-26T03:12:24.157Z,78.69
2019-04-26T03:15:56.750Z,78.83
2019-04-26T03:19:26.909Z,78.73
2019-04-26T03:22:43.243Z,79.48
2019-04-26T03:26:19.702Z,78.95
2019-04-26T03:29:38.975Z,79.18
2019-04-26T03:33:20.521Z,79.13
2019-04-26T03:37:32.575Z,78.81
2019-04-26T03:41:02.850Z,79.09
2019-04-26T03:44:31.245Z,79.69
2019-04-26T03:47:43.742Z,78.62
2019-04-26T03:50:56.982Z,78.46
2019-04-26T03:54:10.697Z,78.78
2019-04-26T03:57:30.720Z,78.08
2019-04-26T04:00:47.819Z,78.00
2019-04-26T04:03:58.963Z,78.07
2019-04-26T04:07:07.293Z,78.39
2019-04-26T04:10:19.304Z,77.85
2019-04-26T04:13:55.494Z,77.76
2019-04-26T04:17:28.001Z,77.65
2019-04-26T04:21:34.077Z,77.51
2019-04-26T04:24:50.796Z,77.00
2019-04-26T04:28:06.388Z,76.32
2019-04-26T04:31:19.339Z,75.79
2019-04-26T04:34:37.660Z,75.53
2019-04-26T04:38:05.535Z,75.76
2019-04-26T04:41:17.487Z,75.77
2019-04-26T04:45:22.370Z,75.22
2019-04-26T04:48:48.454Z,75.68
2019-04-26T04:52:24.291Z,75.61
2019-04-26T04:55:42.931Z,75.52
2019-04-26T04:58:53.446Z,76.24
2019-04-26T05:02:32.044Z,76.21
2019-04-26T05:06:07.349Z,76.25
2019-04-26T05:09:10.449Z,76.34
2019-04-26T05:12:23.952Z,76.27
2019-04-26T05:15:54.917Z,76.09
2019-04-26T05:19:35.983Z,75.55
2019-04-26T05:23:28.334Z,76.25
2019-04-26T05:27:22.492Z,76.02
2019-04-26T05:31:12.357Z,76.45
2019-04-26T05:34:35.285Z,76.10
2019-04-26T05:38:01.527Z,76.04
2019-04-26T05:41:35.746Z,75.92
2019-04-26T05:45:30.058Z,75.55
2019-04-26T05:49:25.220Z,75.37
2019-04-26T05:53:15.183Z,75.18
2019-04-26T05:56:46.352Z,75.69
2019-04-26T06:00:32.857Z,75.17
2019-04-26T06:04:15.655Z,75.30
2019-04-26T06:07:37.927Z,75.38
2019-04-26T06:10:59.971Z,74.23
2019-04-26T06:14:48.824Z,75.00
2019-04-26T06:18:14.292Z,74.66
2019-04-26T06:21:44.193Z,75.11
2019-04-26T06:25:20.255Z,75.32
2019-04-26T06:28:37.858Z,75.58
2019-04-26T06:32:04.707Z,74.26
2019-04-26T06:35:16.961Z,74.58
2019-04-26T06:39:12.040Z,75.09
2019-04-26T06:43:01.278Z,75.63
2019-04-26T06:47:02.634Z,75.28
2019-04-26T06:50:20.148Z,74.33
2019-04-26T06:54:15.539Z,74.52
2019-04-26T06:57:59.966Z,73.54
2019-04-26T07:01:24.750Z,73.80
2019-04-26T07:05:08.965Z,73.67
2019-04-26T07:08:30.039Z,74.02
2019-04-26T07:12:44.534Z,74.52
2019-04-26T07:16:22.373Z,73.92
2019-04-26T07:20:02.483Z,74.01
2019-04-26T07:24:01.192Z,74.07
2019-04-26T07:27:33.942Z,74.34
2019-04-26T07:30:50.222Z,75.09
2019-04-26T07:34:36.176Z,73.75
2019-04-26T07:38:46.333Z,73.37
2019-04-26T07:42:45.745Z,74.15
2019-04-26T07:46:22.290Z,75.01
2019-04-26T07:50:09.887Z,74.23
2019-04-26T07:53:46.608Z,74.62
2019-04-26T07:57:39.037Z,74.77
2019-04-26T08:00:53.571Z,75.08
2019-04-26T08:04:07.334Z,75.13
2019-04-26T08:07:19.431Z,75.37
2019-04-26T08:10:27.501Z,75.15
2019-04-26T08:13:35.598Z,75.82
2019-04-26T08:17:06.563Z,74.97
2019-04-26T08:20:34.668Z,75.63
2019-04-26T08:24:01.744Z,75.29
2019-04-26T08:27:22.557Z,76.75
2019-04-26T08:30:23.799Z,76.30
2019-04-26T08:33:36.525Z,76.17
2019-04-26T08:36:50.487Z,77.08
2019-04-26T08:39:57.722Z,76.60
2019-04-26T08:43:30.844Z,77.34
2019-04-26T08:46:47.587Z,76.94
2019-04-26T08:50:02.543Z,76.21
2019-04-26T08:53:09.402Z,75.23
2019-04-26T08:56:17.508Z,74.33
2019-04-26T08:59:26.723Z,74.67
2019-04-26T09:02:55.151Z,74.62
2019-04-26T09:06:34.648Z,75.82
2019-04-26T09:09:42.971Z,73.71
2019-04-26T09:12:51.235Z,75.00
2019-04-26T09:16:14.632Z,74.58
2019-04-26T09:19:19.871Z,73.69
2019-04-26T09:22:40.602Z,73.81
2019-04-26T09:25:58.739Z,74.91
2019-04-26T09:29:30.232Z,76.43
2019-04-26T09:32:41.609Z,75.43
2019-04-26T09:35:46.877Z,73.45
2019-04-26T09:38:52.074Z,75.64
2019-04-26T09:42:01.216Z,75.95
2019-04-26T09:45:27.539Z,78.80
2019-04-26T09:48:51.900Z,79.69
2019-04-26T09:51:57.310Z,79.39
2019-04-26T09:55:02.476Z,79.42
2019-04-26T09:58:08.704Z,79.40
2019-04-26T10:01:14.113Z,80.81
2019-04-26T10:04:19.270Z,82.37
2019-04-26T10:07:24.491Z,78.52
2019-04-26T10:10:35.174Z,79.91
2019-04-26T10:13:43.578Z,78.97
2019-04-26T10:17:03.600Z,76.33
2019-04-26T10:20:08.837Z,79.25
2019-04-26T10:23:15.040Z,81.84
2019-04-26T10:26:27.740Z,81.52
2019-04-26T10:29:30.181Z,80.16
2019-04-26T10:32:35.465Z,80.68
2019-04-26T10:35:40.707Z,81.97
2019-04-26T10:38:45.994Z,80.82
2019-04-26T10:41:51.106Z,79.08
2019-04-26T10:44:56.300Z,82.38
2019-04-26T10:48:01.467Z,80.38
2019-04-26T10:51:07.277Z,78.47
2019-04-26T10:54:18.785Z,80.78
2019-04-26T10:57:36.887Z,77.81
2019-04-26T11:00:43.385Z,75.64
2019-04-26T11:03:48.576Z,79.31
2019-04-26T11:06:53.688Z,79.74
2019-04-26T11:09:58.990Z,82.70
2019-04-26T11:13:04.537Z,83.93
2019-04-26T11:16:09.742Z,82.92
2019-04-26T11:19:14.960Z,81.68
2019-04-26T11:22:29.022Z,83.38
2019-04-26T11:25:28.235Z,83.04
2019-04-26T11:28:33.979Z,79.02
2019-04-26T11:31:39.286Z,80.28
2019-04-26T11:34:44.412Z,79.78
2019-04-26T11:37:55.097Z,81.40
2019-04-26T11:41:05.913Z,79.92
2019-04-26T11:44:04.553Z,78.86
2019-04-26T11:47:09.767Z,79.53
2019-04-26T11:50:16.086Z,76.97
2019-04-26T11:53:21.711Z,78.43
2019-04-26T11:56:26.877Z,78.38
2019-04-26T11:59:32.054Z,77.67
2019-04-26T12:02:38.565Z,77.40
2019-04-26T12:06:06.311Z,77.80
2019-04-26T12:09:22.795Z,79.49
2019-04-26T12:12:27.964Z,78.48
2019-04-26T12:15:33.134Z,77.88
2019-04-26T12:18:40.186Z,77.51
2019-04-26T12:21:45.311Z,79.36
2019-04-26T12:24:50.590Z,79.24
2019-04-26T12:27:55.946Z,79.24
2019-04-26T12:31:01.163Z,80.01
2019-04-26T12:34:07.522Z,80.72
2019-04-26T12:37:19.776Z,79.78
2019-04-26T12:40:19.683Z,81.37
2019-04-26T12:43:26.178Z,84.23
2019-04-26T12:46:37.447Z,83.31
2019-04-26T12:49:42.832Z,83.84
2019-04-26T12:52:51.404Z,84.21
2019-04-26T12:55:58.166Z,83.25
2019-04-26T12:59:01.789Z,84.78
2019-04-26T13:02:06.996Z,83.41
2019-04-26T13:05:14.533Z,83.16
2019-04-26T13:08:19.445Z,83.70
2019-04-26T13:11:49.083Z,82.83
2019-04-26T13:15:16.824Z,83.68
2019-04-26T13:18:22.269Z,84.28
2019-04-26T13:21:27.479Z,84.29
2019-04-26T13:24:35.469Z,85.12
2019-04-26T13:27:41.646Z,86.11
2019-04-26T13:30:46.429Z,85.39
2019-04-26T13:33:51.557Z,85.40
2019-04-26T13:36:59.136Z,84.96
2019-04-26T13:40:03.482Z,83.27
2019-04-26T13:43:09.167Z,85.58
2019-04-26T13:46:45.800Z,85.12
2019-04-26T13:50:02.573Z,83.05
2019-04-26T13:53:08.299Z,83.08
2019-04-26T13:56:14.340Z,82.24
2019-04-26T13:59:19.449Z,83.07
2019-04-26T14:02:25.653Z,82.10
2019-04-26T14:05:30.840Z,81.37
2019-04-26T14:08:36.004Z,81.59
2019-04-26T14:11:41.297Z,80.16
2019-04-26T14:14:46.530Z,78.77
2019-04-26T14:17:51.666Z,81.68
2019-04-26T14:20:59.046Z,81.79
2019-04-26T14:24:25.819Z,82.27
2019-04-26T14:27:53.174Z,83.92
2019-04-26T14:30:58.378Z,83.49
2019-04-26T14:34:05.394Z,84.08
2019-04-26T14:37:11.264Z,85.16
2019-04-26T14:40:17.909Z,85.60
2019-04-26T14:43:23.557Z,85.49
2019-04-26T14:46:28.819Z,86.55
2019-04-26T14:49:39.219Z,87.02
2019-04-26T14:52:40.990Z,86.20
2019-04-26T14:55:46.122Z,87.52
2019-04-26T14:58:52.262Z,86.96
2019-04-26T15:02:19.341Z,88.00
2019-04-26T15:05:46.553Z,87.56
2019-04-26T15:08:53.099Z,87.10
2019-04-26T15:12:01.223Z,87.65
2019-04-26T15:15:05.736Z,87.18
2019-04-26T15:18:12.304Z,87.94
2019-04-26T15:21:17.502Z,88.29
2019-04-26T15:24:23.040Z,87.83
2019-04-26T15:27:32.253Z,88.67
2019-04-26T15:30:43.134Z,88.06
2019-04-26T15:33:48.567Z,89.35
2019-04-26T15:36:50.148Z,88.73
2019-04-26T15:40:13.385Z,88.82
2019-04-26T15:43:42.825Z,89.24
2019-04-26T15:47:16.601Z,88.44
2019-04-26T15:50:50.234Z,87.85
2019-04-26T15:53:49.771Z,87.49
2019-04-26T15:56:56.120Z,86.61
2019-04-26T16:00:03.873Z,84.14
2019-04-26T16:03:10.112Z,83.50
2019-04-26T16:06:15.287Z,84.99
2019-04-26T16:09:22.944Z,87.46
2019-04-26T16:12:28.450Z,87.13
2019-04-26T16:15:33.952Z,86.28
2019-04-26T16:18:39.147Z,88.06
2019-04-26T16:21:44.314Z,88.88
2019-04-26T16:24:51.163Z,86.65
2019-04-26T16:28:14.297Z,88.07
2019-04-26T16:31:42.194Z,87.80
2019-04-26T16:34:48.789Z,89.07
2019-04-26T16:37:54.133Z,90.32
2019-04-26T16:40:59.299Z,91.86
2019-04-26T16:44:04.590Z,91.67
2019-04-26T16:47:09.970Z,91.51
2019-04-26T16:50:23.246Z,91.46
2019-04-26T16:53:37.696Z,92.49
2019-04-26T16:56:29.824Z,92.48
2019-04-26T16:59:34.989Z,91.57
2019-04-26T17:02:40.200Z,92.95
2019-04-26T17:05:48.393Z,92.73
2019-04-26T17:08:58.628Z,92.28
2019-04-26T17:11:59.360Z,92.43
2019-04-26T17:15:04.964Z,91.12
2019-04-26T17:18:10.170Z,90.48
2019-04-26T17:21:17.521Z,90.01
2019-04-26T17:24:46.231Z,90.65
2019-04-26T17:27:48.796Z,90.32
2019-04-26T17:30:54.058Z,89.82
2019-04-26T17:33:59.250Z,90.91
2019-04-26T17:37:11.707Z,90.37
2019-04-26T17:40:11.507Z,90.26
2019-04-26T17:43:16.659Z,91.11
2019-04-26T17:46:21.882Z,91.49
2019-04-26T17:49:28.915Z,93.64
2019-04-26T17:52:36.190Z,94.32
2019-04-26T17:55:41.487Z,95.24
2019-04-26T17:58:52.364Z,95.95
2019-04-26T18:02:00.837Z,96.91
2019-04-26T18:05:03.367Z,97.69
2019-04-26T18:08:31.578Z,98.23
2019-04-26T18:11:19.681Z,98.56
2019-04-26T18:14:22.062Z,98.61
2019-04-26T18:17:50.187Z,98.52
2019-04-26T18:21:05.725Z,98.35
2019-04-26T18:24:10.884Z,98.87
2019-04-26T18:27:16.100Z,99.15
2019-04-26T18:30:21.323Z,99.63
2019-04-26T18:33:26.531Z,100.00
2019-04-26T18:36:33.275Z,100.00
2019-04-26T18:39:38.537Z,100.00
2019-04-26T18:42:43.731Z,100.00
2019-04-26T18:45:50.516Z,100.00
2019-04-26T18:48:55.717Z,100.00
2019-04-26T18:52:00.847Z,100.00
2019-04-26T18:55:16.445Z,100.00
2019-04-26T18:58:21.587Z,100.00
2019-04-26T19:01:26.767Z,100.00
2019-04-26T19:04:33.487Z,99.97
2019-04-26T19:07:38.982Z,100.00
2019-04-26T19:10:44.256Z,100.00
2019-04-26T19:14:06.316Z,100.00
2019-04-26T19:17:25.989Z,100.00
2019-04-26T19:20:34.994Z,100.00
2019-04-26T19:23:41.547Z,100.00
2019-04-26T19:26:50.022Z,100.00
2019-04-26T19:29:54.648Z,100.00
2019-04-26T19:32:59.844Z,100.00
2019-04-26T19:36:05.212Z,100.00
2019-04-26T19:39:12.015Z,100.00
2019-04-26T19:42:19.117Z,100.00
2019-04-26T19:45:39.515Z,100.00
2019-04-26T19:49:03.440Z,100.00
2019-04-26T19:52:18.566Z,100.00
2019-04-26T19:55:47.436Z,100.00
2019-04-26T19:58:56.963Z,100.00
2019-04-26T20:01:57.756Z,100.00
2019-04-26T20:05:06.681Z,100.00
2019-04-26T20:08:11.945Z,100.00
2019-04-26T20:11:18.718Z,100.00
2019-04-26T20:14:39.405Z,100.00
2019-04-26T20:17:31.357Z,100.00
2019-04-26T20:20:36.576Z,100.00
2019-04-26T20:23:43.821Z,100.00
2019-04-26T20:26:48.869Z,100.00
2019-04-26T20:29:55.020Z,100.00
2019-04-26T20:33:01.774Z,100.00
2019-04-26T20:36:07.067Z,100.00
2019-04-26T20:39:12.582Z,100.00
2019-04-26T20:42:17.810Z,100.00
2019-04-26T20:45:22.977Z,100.00
2019-04-26T20:48:32.944Z,100.00
2019-04-26T20:51:36.005Z,100.00
2019-04-26T20:54:41.701Z,100.00
2019-04-26T20:57:48.037Z,100.00
2019-04-26T21:00:54.505Z,100.00
2019-04-26T21:03:59.937Z,100.00
2019-04-26T21:07:06.839Z,100.00
2019-04-26T21:10:15.217Z,100.00
2019-04-26T21:13:18.973Z,100.00
2019-04-26T21:16:24.309Z,100.00
2019-04-26T21:19:32.727Z,100.00
2019-04-26T21:22:36.404Z,100.00
2019-04-26T21:25:53.577Z,100.00
2019-04-26T21:29:20.173Z,100.00
2019-04-26T21:32:33.231Z,100.00
2019-04-26T21:35:44.514Z,100.00
2019-04-26T21:39:11.516Z,100.00
2019-04-26T21:42:17.291Z,100.00
2019-04-26T21:45:28.422Z,100.00
2019-04-26T21:48:32.757Z,100.00
2019-04-26T21:51:39.190Z,100.00
2019-04-26T21:54:44.499Z,100.00
2019-04-26T21:57:49.689Z,100.00
2019-04-26T22:01:15.680Z,100.00
2019-04-26T22:04:21.025Z,100.00
2019-04-26T22:07:26.294Z,100.00
2019-04-26T22:10:44.619Z,100.00
2019-04-26T22:13:59.149Z,100.00
2019-04-26T22:17:29.107Z,100.00
2019-04-26T22:20:56.072Z,100.00
2019-04-26T22:24:19.334Z,100.00
2019-04-26T22:27:25.374Z,100.00
2019-04-26T22:30:30.783Z,100.00
2019-04-26T22:33:36.058Z,100.00
2019-04-26T22:36:41.252Z,100.00
2019-04-26T22:39:46.446Z,100.00
2019-04-26T22:42:55.834Z,100.00
2019-04-26T22:46:27.018Z,100.00
2019-04-26T22:49:30.090Z,100.00
2019-04-26T22:52:35.295Z,100.00
2019-04-26T22:55:40.580Z,100.00
2019-04-26T22:58:45.806Z,100.00
2019-04-26T23:01:53.623Z,100.00
2019-04-26T23:05:00.569Z,100.00
2019-04-26T23:08:07.139Z,100.00
2019-04-26T23:11:13.451Z,100.00
2019-04-26T23:14:40.753Z,100.00
2019-04-26T23:17:57.879Z,100.00
2019-04-26T23:21:12.040Z,100.00
2019-04-26T23:24:18.952Z,100.00
2019-04-26T23:27:24.340Z,100.00
2019-04-26T23:30:31.715Z,100.00
2019-04-26T23:33:37.574Z,100.00
2019-04-26T23:36:43.702Z,100.00
2019-04-26T23:39:50.978Z,100.00
2019-04-26T23:42:55.818Z,100.00
2019-04-26T23:46:01.209Z,100.00
2019-04-26T23:49:06.390Z,100.00
2019-04-26T23:52:14.554Z,100.00
2019-04-26T23:55:18.581Z,100.00
2019-04-26T23:58:23.701Z,100.00
